Time;durP1;ratioP1;P1;durP2;ratioP2;P2;SDS_P1;SDS_P2;PMS_P1;PMS_P2;Temp;Humidity;BMP_temperature;BMP_pressure;BME280_temperature;BME280_humidity;BME280_pressure;Samples;Min_cycle;Max_cycle;Signal;HPM_P1;HPM_P2
2022/03/02 00:01:04;;;;;;;6.10;4.47;;;0.90;99.90;;;;;;5012090;28;20176;-68
2022/03/02 00:03:30;;;;;;;5.87;3.87;;;0.90;99.90;;;;;;5011783;28;20176;-68
2022/03/02 00:05:55;;;;;;;9.80;4.50;;;0.90;99.90;;;;;;5011546;28;20445;-68
2022/03/02 00:08:21;;;;;;;6.43;5.13;;;0.90;99.90;;;;;;5011671;28;20627;-67
2022/03/02 00:10:46;;;;;;;7.13;5.30;;;0.90;99.90;;;;;;5011600;28;20215;-66
2022/03/02 00:13:12;;;;;;;7.27;6.30;;;0.90;99.90;;;;;;5011751;28;20184;-66
2022/03/02 00:15:37;;;;;;;4.33;3.93;;;0.90;99.90;;;;;;5011523;28;20172;-66
2022/03/02 00:18:03;;;;;;;7.77;4.77;;;0.80;99.90;;;;;;5011595;28;20176;-67
2022/03/02 00:20:28;;;;;;;9.70;5.30;;;0.80;99.90;;;;;;5011661;28;20201;-68
2022/03/02 00:22:55;;;;;;;8.57;5.50;;;0.80;99.90;;;;;;5011622;28;20559;-67
2022/03/02 00:25:21;;;;;;;5.83;5.23;;;0.80;99.90;;;;;;5011927;28;20185;-66
2022/03/02 00:27:47;;;;;;;6.70;4.40;;;0.80;99.90;;;;;;5011563;28;20431;-66
2022/03/02 00:30:12;;;;;;;7.97;5.57;;;0.80;99.90;;;;;;5011548;28;20498;-66
2022/03/02 00:32:38;;;;;;;10.50;5.20;;;0.80;99.90;;;;;;5011757;28;20300;-66
2022/03/02 00:35:05;;;;;;;4.40;4.00;;;0.80;99.90;;;;;;5011332;28;20179;-67
2022/03/02 00:37:30;;;;;;;5.80;5.20;;;0.80;99.90;;;;;;5011342;28;20571;-67
2022/03/02 00:39:56;;;;;;;9.70;5.20;;;0.70;99.90;;;;;;5011492;28;20514;-67
2022/03/02 00:42:22;;;;;;;11.90;3.90;;;0.70;99.90;;;;;;5011313;28;20173;-67
2022/03/02 00:44:48;;;;;;;5.83;3.90;;;0.80;99.90;;;;;;5011500;28;20250;-67
2022/03/02 00:47:14;;;;;;;4.40;4.00;;;0.80;99.90;;;;;;5011354;28;20451;-67
2022/03/02 00:49:40;;;;;;;5.43;4.23;;;0.80;99.90;;;;;;5005157;28;20176;-66
2022/03/02 00:52:06;;;;;;;8.30;6.10;;;0.80;99.90;;;;;;5004508;28;20451;-67
2022/03/02 00:54:32;;;;;;;9.73;5.07;;;0.80;99.90;;;;;;5011304;28;20841;-65
2022/03/02 00:56:57;;;;;;;8.87;5.40;;;0.80;99.90;;;;;;4991779;28;20459;-66
2022/03/02 00:59:23;;;;;;;7.83;3.97;;;0.80;99.90;;;;;;4991646;28;20165;-66
2022/03/02 01:01:49;;;;;;;4.70;4.40;;;0.80;99.90;;;;;;4991470;28;20173;-66
2022/03/02 01:04:14;;;;;;;7.03;6.37;;;0.80;99.90;;;;;;4991599;28;20702;-67
2022/03/02 01:06:40;;;;;;;11.60;5.03;;;0.80;99.90;;;;;;4991045;28;20263;-67
2022/03/02 01:09:05;;;;;;;11.37;7.40;;;0.80;99.90;;;;;;5003774;28;20188;-67
2022/03/02 01:11:31;;;;;;;9.53;7.67;;;0.80;99.90;;;;;;5010971;28;20219;-67
2022/03/02 01:13:56;;;;;;;5.80;5.23;;;0.80;99.90;;;;;;5010949;28;20173;-66
2022/03/02 01:16:22;;;;;;;8.90;4.50;;;0.80;99.90;;;;;;5010838;28;20206;-68
2022/03/02 01:18:47;;;;;;;6.70;5.47;;;0.80;99.90;;;;;;5010936;28;20165;-68
2022/03/02 01:21:13;;;;;;;6.73;4.53;;;0.80;99.90;;;;;;5011019;28;20670;-67
2022/03/02 01:23:39;;;;;;;8.00;4.83;;;0.80;99.90;;;;;;5010972;28;20696;-68
2022/03/02 01:26:05;;;;;;;4.97;4.40;;;0.80;99.90;;;;;;5010847;28;20192;-67
2022/03/02 01:28:30;;;;;;;5.13;4.70;;;0.80;99.90;;;;;;5012251;28;20200;-66
2022/03/02 01:30:56;;;;;;;6.20;4.17;;;0.80;99.90;;;;;;5014349;28;20465;-67
2022/03/02 01:33:22;;;;;;;10.73;4.73;;;0.80;99.90;;;;;;5014416;28;20204;-66
2022/03/02 01:35:47;;;;;;;7.27;5.10;;;0.80;99.90;;;;;;5014277;28;20423;-66
2022/03/02 01:38:13;;;;;;;9.53;6.60;;;0.80;99.90;;;;;;5014349;28;20173;-66
2022/03/02 01:40:39;;;;;;;5.10;4.63;;;0.80;99.90;;;;;;5014276;28;20503;-67
2022/03/02 01:43:04;;;;;;;7.87;4.50;;;0.80;99.90;;;;;;5014390;28;20173;-67
2022/03/02 01:45:30;;;;;;;6.83;5.30;;;0.80;99.90;;;;;;5014101;28;20179;-66
2022/03/02 01:47:59;;;;;;;5.53;4.93;;;0.80;99.90;;;;;;5014186;28;20168;-66
2022/03/02 01:50:25;;;;;;;6.73;5.50;;;0.80;99.90;;;;;;5013919;28;20566;-68
2022/03/02 01:52:51;;;;;;;11.03;4.80;;;0.80;99.90;;;;;;5014034;28;20412;-68
2022/03/02 01:55:16;;;;;;;6.37;5.00;;;0.80;99.90;;;;;;5013945;28;20164;-68
2022/03/02 01:57:43;;;;;;;6.40;5.33;;;0.80;99.90;;;;;;5013988;28;20212;-67
2022/03/02 02:00:15;;;;;;;11.67;4.40;;;0.80;99.90;;;;;;5014538;28;20242;-68
2022/03/02 02:02:41;;;;;;;11.47;5.83;;;0.80;99.90;;;;;;5014006;28;20783;-68
2022/03/02 02:05:07;;;;;;;5.80;4.67;;;0.80;99.90;;;;;;5013623;28;20399;-68
2022/03/02 02:07:33;;;;;;;5.90;5.40;;;0.80;99.90;;;;;;5013912;28;20430;-68
2022/03/02 02:09:59;;;;;;;4.57;3.70;;;0.70;99.90;;;;;;5013981;28;20418;-67
2022/03/02 02:12:25;;;;;;;8.17;4.47;;;0.80;99.90;;;;;;5013872;28;20176;-67
2022/03/02 02:14:50;;;;;;;8.93;7.70;;;0.70;99.90;;;;;;5013695;28;20403;-67
2022/03/02 02:17:16;;;;;;;8.83;4.60;;;0.80;99.90;;;;;;5012197;28;20431;-67
2022/03/02 02:19:41;;;;;;;5.57;5.00;;;0.80;99.90;;;;;;5008051;28;20213;-66
2022/03/02 02:22:07;;;;;;;9.33;4.70;;;0.70;99.90;;;;;;5013555;28;20443;-65
2022/03/02 02:24:33;;;;;;;7.37;4.80;;;0.80;99.90;;;;;;5013598;28;20168;-65
2022/03/02 02:26:58;;;;;;;6.77;5.20;;;0.70;99.90;;;;;;5013940;28;20203;-65
2022/03/02 02:29:28;;;;;;;9.23;5.83;;;0.70;99.90;;;;;;5013548;28;20172;-65
2022/03/02 02:31:54;;;;;;;9.53;4.13;;;0.70;99.90;;;;;;5013317;28;20226;-65
2022/03/02 02:34:19;;;;;;;10.63;5.17;;;0.70;99.90;;;;;;5013563;28;20403;-66
2022/03/02 02:36:46;;;;;;;7.47;5.40;;;0.70;99.90;;;;;;5013468;28;20223;-65
2022/03/02 02:39:11;;;;;;;8.40;3.90;;;0.70;99.90;;;;;;5012713;28;20223;-66
2022/03/02 02:41:37;;;;;;;7.90;4.70;;;0.70;99.90;;;;;;5012791;28;20403;-66
2022/03/02 02:44:02;;;;;;;8.10;7.30;;;0.70;99.90;;;;;;5013596;28;20262;-66
2022/03/02 02:46:28;;;;;;;15.20;5.40;;;0.70;99.90;;;;;;5012776;28;20220;-66
2022/03/02 02:48:53;;;;;;;9.33;7.60;;;0.70;99.90;;;;;;5013051;28;20185;-66
2022/03/02 02:51:19;;;;;;;8.80;5.87;;;0.80;99.90;;;;;;5013187;28;20254;-66
2022/03/02 02:53:44;;;;;;;9.23;5.10;;;0.80;99.90;;;;;;5012856;28;20690;-66
2022/03/02 02:56:10;;;;;;;5.77;5.23;;;0.70;99.90;;;;;;5012848;28;20238;-66
2022/03/02 02:58:36;;;;;;;8.43;5.07;;;0.80;99.90;;;;;;5013054;28;20172;-66
2022/03/02 03:01:02;;;;;;;5.50;4.03;;;0.80;99.90;;;;;;5012929;28;20177;-66
2022/03/02 03:03:28;;;;;;;4.80;4.37;;;0.70;99.90;;;;;;5012765;28;20415;-67
2022/03/02 03:05:54;;;;;;;6.10;5.50;;;0.70;99.90;;;;;;5012727;28;20431;-66
2022/03/02 03:08:19;;;;;;;5.23;3.47;;;0.80;99.90;;;;;;5013294;28;20208;-66
2022/03/02 03:10:45;;;;;;;5.67;4.87;;;0.80;99.90;;;;;;5012914;28;20618;-66
2022/03/02 03:13:12;;;;;;;12.30;5.63;;;0.80;99.90;;;;;;5012807;28;20301;-66
2022/03/02 03:15:38;;;;;;;5.30;3.40;;;0.80;99.90;;;;;;5012955;28;20494;-66
2022/03/02 03:18:05;;;;;;;6.67;6.03;;;0.80;99.90;;;;;;5012752;28;20403;-65
2022/03/02 03:20:31;;;;;;;6.57;5.60;;;0.80;99.90;;;;;;5012773;28;20420;-66
2022/03/02 03:22:58;;;;;;;4.80;4.50;;;0.80;99.90;;;;;;5012792;28;20422;-66
2022/03/02 03:25:24;;;;;;;5.97;3.77;;;0.80;99.90;;;;;;5012939;28;20498;-66
2022/03/02 03:27:50;;;;;;;7.27;6.10;;;0.80;99.90;;;;;;5013012;28;20439;-66
2022/03/02 03:30:17;;;;;;;12.27;6.10;;;0.90;99.90;;;;;;5013247;28;20481;-66
2022/03/02 03:32:43;;;;;;;6.17;4.93;;;0.90;99.90;;;;;;5013908;28;20171;-66
2022/03/02 03:35:10;;;;;;;4.73;4.43;;;0.90;99.90;;;;;;5013933;28;20407;-66
2022/03/02 03:37:36;;;;;;;7.27;5.10;;;0.90;99.90;;;;;;5012329;28;20287;-66
2022/03/02 03:40:04;;;;;;;8.43;5.40;;;0.90;99.90;;;;;;5012518;28;20836;-66
2022/03/02 03:42:29;;;;;;;9.70;5.03;;;0.80;99.90;;;;;;5012041;28;20399;-66
2022/03/02 03:44:55;;;;;;;7.30;5.40;;;0.90;99.90;;;;;;5011860;28;20917;-66
2022/03/02 03:47:20;;;;;;;7.70;4.83;;;0.90;99.90;;;;;;5011950;28;20313;-65
2022/03/02 03:49:46;;;;;;;5.20;4.10;;;0.80;99.90;;;;;;5012279;28;20230;-66
2022/03/02 03:52:12;;;;;;;10.70;5.50;;;0.80;99.90;;;;;;5011563;28;20718;-65
2022/03/02 03:54:37;;;;;;;7.73;4.20;;;0.80;99.90;;;;;;5011833;28;20164;-66
2022/03/02 03:57:05;;;;;;;4.70;4.30;;;0.80;99.90;;;;;;5011636;28;20203;-67
2022/03/02 03:59:30;;;;;;;10.20;7.40;;;0.80;99.90;;;;;;5011707;28;20194;-66
2022/03/02 04:01:56;;;;;;;8.30;6.40;;;0.80;99.90;;;;;;5011769;28;20411;-66
2022/03/02 04:04:21;;;;;;;9.10;5.50;;;0.80;99.90;;;;;;5011768;28;20187;-66
2022/03/02 04:06:47;;;;;;;8.73;5.00;;;0.80;99.90;;;;;;5011521;28;20192;-66
2022/03/02 04:09:12;;;;;;;5.00;4.53;;;0.80;99.90;;;;;;5011879;28;20203;-66
2022/03/02 04:11:38;;;;;;;6.07;4.13;;;0.80;99.90;;;;;;5011570;28;20204;-66
2022/03/02 04:14:04;;;;;;;8.77;7.10;;;0.80;99.90;;;;;;5011922;28;20200;-66
2022/03/02 04:16:29;;;;;;;5.33;4.50;;;0.80;99.90;;;;;;5011862;28;20514;-66
2022/03/02 04:18:55;;;;;;;6.53;5.73;;;0.90;99.90;;;;;;5011727;28;20169;-66
2022/03/02 04:21:20;;;;;;;8.40;6.07;;;0.90;99.90;;;;;;5011370;28;20283;-66
2022/03/02 04:23:46;;;;;;;9.10;6.03;;;0.90;99.90;;;;;;5011376;28;20234;-66
2022/03/02 04:26:11;;;;;;;6.13;5.50;;;0.90;99.90;;;;;;5006525;28;20208;-66
2022/03/02 04:28:37;;;;;;;8.60;5.17;;;0.80;99.90;;;;;;4991958;28;20267;-66
2022/03/02 04:31:03;;;;;;;11.43;5.10;;;0.90;99.90;;;;;;4991764;28;20214;-68
2022/03/02 04:33:29;;;;;;;10.60;5.70;;;0.90;99.90;;;;;;4991826;28;20179;-66
2022/03/02 04:35:54;;;;;;;9.63;5.10;;;0.80;99.90;;;;;;4991707;28;20308;-67
2022/03/02 04:38:19;;;;;;;11.70;6.10;;;0.90;99.90;;;;;;4996392;28;20204;-67
2022/03/02 04:40:45;;;;;;;5.93;4.97;;;0.90;99.90;;;;;;5010913;28;20180;-66
2022/03/02 04:43:10;;;;;;;6.73;5.07;;;0.90;99.90;;;;;;5011229;28;20176;-67
2022/03/02 04:45:36;;;;;;;6.20;4.97;;;0.90;99.90;;;;;;5011095;28;20643;-67
2022/03/02 04:48:02;;;;;;;5.80;4.87;;;0.80;99.90;;;;;;5011311;28;20184;-67
2022/03/02 04:50:28;;;;;;;6.83;5.03;;;0.90;99.90;;;;;;5011089;28;20583;-66
2022/03/02 04:52:55;;;;;;;9.03;6.33;;;0.80;99.90;;;;;;5011328;28;20180;-66
2022/03/02 04:55:21;;;;;;;6.60;5.13;;;0.80;99.90;;;;;;5011010;28;20411;-67
2022/03/02 04:57:52;;;;;;;6.33;5.73;;;0.80;99.90;;;;;;5011170;28;20524;-65
2022/03/02 05:00:21;;;;;;;12.50;6.60;;;0.80;99.90;;;;;;5011141;28;20415;-65
2022/03/02 05:02:46;;;;;;;7.33;6.63;;;0.80;99.90;;;;;;5011421;28;20407;-65
2022/03/02 05:05:16;;;;;;;8.77;6.37;;;0.80;99.90;;;;;;5015013;28;20457;-66
2022/03/02 05:07:43;;;;;;;5.13;4.63;;;0.80;99.90;;;;;;5015083;28;20223;-67
2022/03/02 05:10:10;;;;;;;13.93;9.80;;;0.90;99.90;;;;;;5015204;28;20498;-65
2022/03/02 05:12:35;;;;;;;6.00;4.80;;;0.90;99.90;;;;;;5014986;28;20772;-65
2022/03/02 05:15:02;;;;;;;15.83;6.10;;;0.90;99.90;;;;;;5015149;28;20482;-65
2022/03/02 05:17:28;;;;;;;9.83;7.50;;;0.90;99.90;;;;;;5014814;28;20191;-66
2022/03/02 05:19:54;;;;;;;8.10;7.30;;;0.80;99.90;;;;;;5014941;28;20937;-65
2022/03/02 05:22:19;;;;;;;8.23;6.97;;;0.80;99.90;;;;;;5015082;28;20486;-66
2022/03/02 05:24:45;;;;;;;6.27;5.67;;;0.90;99.90;;;;;;5015111;28;20650;-66
2022/03/02 05:27:10;;;;;;;9.80;7.80;;;0.80;99.90;;;;;;5014735;28;20530;-66
2022/03/02 05:29:36;;;;;;;17.13;6.27;;;0.80;99.90;;;;;;5014861;28;20203;-66
2022/03/02 05:32:03;;;;;;;9.10;6.90;;;0.80;99.90;;;;;;5014491;28;20228;-66
2022/03/02 05:34:28;;;;;;;12.03;6.37;;;0.90;99.90;;;;;;5014451;28;20700;-66
2022/03/02 05:36:54;;;;;;;9.73;7.50;;;0.80;99.90;;;;;;5014618;28;20423;-66
2022/03/02 05:39:19;;;;;;;7.67;6.50;;;0.80;99.90;;;;;;5014737;28;20172;-66
2022/03/02 05:41:45;;;;;;;6.17;4.97;;;0.80;99.90;;;;;;5014345;28;20640;-66
2022/03/02 05:44:11;;;;;;;11.50;8.07;;;0.90;99.90;;;;;;5014230;28;20172;-66
2022/03/02 05:46:38;;;;;;;15.93;6.43;;;0.90;99.90;;;;;;5014166;28;20191;-66
2022/03/02 05:49:04;;;;;;;9.37;7.10;;;0.90;99.90;;;;;;5014212;28;20411;-66
2022/03/02 05:51:31;;;;;;;9.50;7.80;;;0.90;99.90;;;;;;5014124;28;20455;-66
2022/03/02 05:54:00;;;;;;;12.87;6.97;;;0.90;99.90;;;;;;5014287;28;20415;-66
2022/03/02 05:56:25;;;;;;;9.63;7.53;;;0.90;99.90;;;;;;5014128;28;20761;-66
2022/03/02 05:58:54;;;;;;;17.47;7.77;;;1.00;99.90;;;;;;5014007;28;20442;-66
2022/03/02 06:01:20;;;;;;;10.67;6.20;;;1.00;99.90;;;;;;5013943;28;20647;-66
2022/03/02 06:03:46;;;;;;;8.40;5.43;;;1.00;99.90;;;;;;5014184;28;20422;-66
2022/03/02 06:06:12;;;;;;;9.43;6.73;;;1.00;99.90;;;;;;5013874;28;20446;-66
2022/03/02 06:08:37;;;;;;;10.07;9.20;;;1.00;99.90;;;;;;5014246;28;20227;-67
2022/03/02 06:11:03;;;;;;;32.30;8.93;;;1.00;99.90;;;;;;5013984;28;20483;-67
2022/03/02 06:13:30;;;;;;;9.50;8.53;;;1.00;99.90;;;;;;5013837;28;20532;-66
2022/03/02 06:15:57;;;;;;;16.80;8.60;;;1.00;99.90;;;;;;5014018;28;20514;-66
2022/03/02 06:18:23;;;;;;;15.33;8.77;;;1.00;99.90;;;;;;5014297;28;20410;-66
2022/03/02 06:20:51;;;;;;;13.73;9.00;;;1.30;99.90;;;;;;5013416;28;20411;-66
2022/03/02 06:23:18;;;;;;;16.87;8.13;;;1.20;99.90;;;;;;5014020;28;20461;-66
2022/03/02 06:25:44;;;;;;;12.30;7.00;;;1.20;99.90;;;;;;5013799;28;20422;-66
2022/03/02 06:28:10;;;;;;;18.93;6.70;;;1.20;99.90;;;;;;5014071;28;20411;-66
2022/03/02 06:30:36;;;;;;;19.83;8.90;;;1.20;99.90;;;;;;5013902;28;20451;-66
2022/03/02 06:33:01;;;;;;;16.70;8.30;;;1.20;99.90;;;;;;5013670;28;20175;-66
2022/03/02 06:35:27;;;;;;;8.50;7.70;;;1.20;99.90;;;;;;5013444;28;20196;-66
2022/03/02 06:37:53;;;;;;;10.30;8.47;;;1.20;99.90;;;;;;5013432;28;20198;-69
2022/03/02 06:40:18;;;;;;;13.20;9.50;;;1.20;99.90;;;;;;5013493;28;20507;-66
2022/03/02 06:43:08;;;;;;;8.17;6.57;;;1.20;99.90;;;;;;5013121;28;20174;-66
2022/03/02 06:45:57;;;;;;;14.63;8.30;;;1.20;99.90;;;;;;5012889;28;20933;-68
2022/03/02 06:48:34;;;;;;;22.33;10.80;;;1.30;99.90;;;;;;4995977;28;20960;-68
2022/03/02 06:51:01;;;;;;;9.60;8.70;;;1.40;99.90;;;;;;5007309;28;20466;-66
2022/03/02 06:53:31;;;;;;;14.57;9.33;;;1.30;99.90;;;;;;5011428;28;20419;-67
2022/03/02 06:55:59;;;;;;;15.33;9.03;;;1.40;99.90;;;;;;5012941;28;20434;-67
2022/03/02 06:58:26;;;;;;;10.10;6.73;;;1.30;99.90;;;;;;5012607;28;20423;-67
2022/03/02 07:00:53;;;;;;;14.00;10.60;;;1.40;99.90;;;;;;5012565;28;20412;-68
2022/03/02 07:03:19;;;;;;;14.70;9.53;;;1.40;99.90;;;;;;5013147;28;20407;-67
2022/03/02 07:05:46;;;;;;;16.23;11.20;;;1.50;99.90;;;;;;5012791;28;20815;-66
2022/03/02 07:08:13;;;;;;;8.63;6.40;;;1.50;99.90;;;;;;5013135;28;20403;-66
2022/03/02 07:10:38;;;;;;;11.83;8.57;;;1.50;99.90;;;;;;5012044;28;20542;-66
2022/03/02 07:13:05;;;;;;;17.63;9.17;;;1.60;99.90;;;;;;5013036;28;20443;-70
2022/03/02 07:15:33;;;;;;;14.83;8.53;;;1.70;99.90;;;;;;5012681;28;20605;-69
2022/03/02 07:18:00;;;;;;;14.90;9.13;;;1.70;99.90;;;;;;5013045;28;20399;-67
2022/03/02 07:20:27;;;;;;;8.07;6.83;;;1.70;99.90;;;;;;5012980;28;20407;-68
2022/03/02 07:22:53;;;;;;;10.33;8.60;;;1.70;99.90;;;;;;5013492;28;20424;-66
2022/03/02 07:25:27;;;;;;;10.53;8.50;;;1.90;99.90;;;;;;5012489;28;20781;-66
2022/03/02 07:27:55;;;;;;;12.50;8.43;;;1.90;99.90;;;;;;5013425;28;20882;-67
2022/03/02 07:30:21;;;;;;;23.30;8.97;;;1.90;99.90;;;;;;5012472;28;21081;-71
2022/03/02 07:32:47;;;;;;;11.20;9.27;;;1.90;99.90;;;;;;5013170;28;20404;-67
2022/03/02 07:35:15;;;;;;;9.60;7.87;;;1.90;99.90;;;;;;5013122;28;20422;-70
2022/03/02 07:37:43;;;;;;;13.23;9.83;;;2.00;99.90;;;;;;5012701;28;20208;-70
2022/03/02 07:40:10;;;;;;;12.87;7.37;;;2.10;99.90;;;;;;5012627;28;20410;-67
2022/03/02 07:42:36;;;;;;;12.87;7.63;;;2.10;99.90;;;;;;5012303;28;20445;-67
2022/03/02 07:45:04;;;;;;;17.07;9.40;;;2.20;99.90;;;;;;5012077;28;20414;-67
2022/03/02 07:47:29;;;;;;;13.33;6.70;;;1.90;99.90;;;;;;5012315;28;20469;-68
2022/03/02 07:49:55;;;;;;;24.53;8.07;;;2.30;99.90;;;;;;5012446;28;20818;-66
2022/03/02 07:52:28;;;;;;;12.23;8.07;;;2.60;99.90;;;;;;5011787;28;20275;-67
2022/03/02 07:54:58;;;;;;;20.80;8.10;;;2.70;99.90;;;;;;5012075;28;20210;-67
2022/03/02 07:57:24;;;;;;;14.30;7.70;;;2.90;99.90;;;;;;5012061;28;20462;-66
2022/03/02 07:59:51;;;;;;;9.90;6.13;;;3.30;99.90;;;;;;5013573;28;20498;-66
2022/03/02 08:02:20;;;;;;;20.37;8.77;;;3.30;99.90;;;;;;5007999;28;20431;-68
2022/03/02 08:04:50;;;;;;;10.67;7.23;;;3.40;99.90;;;;;;5011615;28;20411;-68
2022/03/02 08:07:15;;;;;;;11.67;7.77;;;3.50;99.90;;;;;;5011973;28;20470;-67
2022/03/02 08:09:41;;;;;;;14.37;8.50;;;3.60;99.90;;;;;;5012160;28;20416;-67
2022/03/02 08:12:07;;;;;;;13.00;7.70;;;3.80;99.90;;;;;;5011769;28;20283;-67
2022/03/02 08:14:33;;;;;;;12.37;7.93;;;4.00;99.90;;;;;;5012017;28;20816;-67
2022/03/02 08:16:59;;;;;;;15.53;6.43;;;4.20;99.90;;;;;;5011749;28;20510;-66
2022/03/02 08:19:24;;;;;;;14.87;8.80;;;4.30;99.90;;;;;;5031234;23;20332;-70
2022/03/02 08:21:57;;;;;;;12.93;9.03;;;4.50;99.90;;;;;;5011894;28;20180;-71
2022/03/02 08:24:25;;;;;;;9.83;7.40;;;4.50;99.90;;;;;;5013024;28;20514;-70
2022/03/02 08:26:54;;;;;;;19.43;9.83;;;4.40;99.90;;;;;;5012013;28;21030;-72
2022/03/02 08:29:22;;;;;;;18.73;8.43;;;5.00;99.90;;;;;;5011731;28;20836;-71
2022/03/02 08:31:48;;;;;;;12.17;7.70;;;4.90;99.90;;;;;;4992438;28;20452;-72
2022/03/02 08:34:14;;;;;;;12.43;6.57;;;5.00;99.90;;;;;;4992306;28;20431;-71
2022/03/02 08:36:43;;;;;;;11.73;7.57;;;6.00;99.90;;;;;;4992562;28;20781;-72
2022/03/02 08:39:13;;;;;;;10.93;8.23;;;6.30;99.90;;;;;;4991448;28;20182;-71
2022/03/02 08:41:39;;;;;;;10.73;7.60;;;6.90;99.90;;;;;;4996443;28;20415;-71
2022/03/02 08:44:06;;;;;;;14.20;7.87;;;6.50;99.90;;;;;;4995236;28;20400;-71
2022/03/02 08:46:32;;;;;;;13.70;8.50;;;6.00;99.90;;;;;;4996014;28;20885;-70
2022/03/02 08:48:57;;;;;;;16.27;7.97;;;6.50;99.90;;;;;;4996202;28;20411;-71
2022/03/02 08:51:25;;;;;;;11.93;7.90;;;6.80;99.90;;;;;;4996324;28;20823;-70
2022/03/02 08:53:53;;;;;;;16.53;8.43;;;7.10;99.30;;;;;;4995870;28;20313;-71
2022/03/02 08:56:20;;;;;;;13.47;8.80;;;7.70;98.60;;;;;;4995853;28;20415;-71
2022/03/02 08:58:46;;;;;;;16.63;8.77;;;7.60;97.60;;;;;;4995970;28;20473;-71
2022/03/02 09:01:13;;;;;;;12.67;8.67;;;7.40;97.00;;;;;;4995687;28;20427;-71
2022/03/02 09:03:43;;;;;;;12.63;8.43;;;7.20;97.30;;;;;;4995904;28;20173;-70
2022/03/02 09:06:10;;;;;;;17.13;8.40;;;7.20;96.90;;;;;;4995405;28;20404;-70
2022/03/02 09:08:36;;;;;;;17.97;7.60;;;6.90;96.60;;;;;;4995713;28;20440;-70
2022/03/02 09:11:02;;;;;;;10.73;8.30;;;7.60;96.60;;;;;;4995500;28;20498;-71
2022/03/02 09:13:29;;;;;;;13.50;7.77;;;7.40;95.30;;;;;;4995563;28;20408;-70
2022/03/02 09:15:54;;;;;;;11.73;8.13;;;6.10;96.10;;;;;;4995219;28;20165;-71
2022/03/02 09:18:19;;;;;;;12.20;7.90;;;6.10;96.80;;;;;;4995538;28;20462;-70
2022/03/02 09:20:48;;;;;;;8.80;6.27;;;5.90;97.50;;;;;;4995564;28;20219;-72
2022/03/02 09:23:14;;;;;;;12.77;7.77;;;6.70;96.30;;;;;;4995821;28;20173;-71
2022/03/02 09:25:42;;;;;;;13.30;7.67;;;7.00;96.20;;;;;;4996322;28;20411;-71
2022/03/02 09:28:09;;;;;;;12.90;8.40;;;7.40;95.60;;;;;;4996225;28;20779;-72
2022/03/02 09:30:36;;;;;;;10.80;7.50;;;7.00;94.70;;;;;;4995796;28;20464;-70
2022/03/02 09:33:02;;;;;;;13.03;6.97;;;7.10;94.30;;;;;;4995522;28;20965;-72
2022/03/02 09:35:29;;;;;;;11.47;6.87;;;7.20;94.50;;;;;;4995414;28;20447;-70
2022/03/02 09:37:56;;;;;;;10.87;6.97;;;6.60;95.40;;;;;;4995659;28;20488;-71
2022/03/02 09:40:27;;;;;;;12.10;6.90;;;7.10;95.50;;;;;;4995655;28;20430;-71
2022/03/02 09:43:07;;;;;;;14.57;7.27;;;7.50;94.70;;;;;;4995229;28;20436;-71
2022/03/02 09:45:34;;;;;;;9.27;7.30;;;7.70;94.50;;;;;;4995297;28;20474;-71
2022/03/02 09:48:04;;;;;;;10.40;6.87;;;7.90;92.90;;;;;;4995284;28;20412;-71
2022/03/02 09:50:37;;;;;;;14.63;6.07;;;7.80;92.00;;;;;;4994882;28;21024;-70
2022/03/02 09:53:12;;;;;;;10.73;7.60;;;7.80;92.10;;;;;;4995245;28;20427;-71
2022/03/02 09:55:40;;;;;;;15.33;7.53;;;7.20;92.60;;;;;;4995115;28;20776;-71
2022/03/02 09:58:06;;;;;;;11.33;6.70;;;7.50;92.20;;;;;;4995144;28;20910;-71
2022/03/02 10:00:32;;;;;;;9.70;6.13;;;7.10;91.10;;;;;;4995265;28;20458;-71
2022/03/02 10:02:59;;;;;;;9.67;5.27;;;7.00;90.60;;;;;;4994867;28;20448;-71
2022/03/02 10:05:30;;;;;;;9.73;5.70;;;6.70;90.20;;;;;;4994869;28;20181;-70
2022/03/02 10:08:07;;;;;;;12.00;6.20;;;6.70;91.20;;;;;;4994758;28;20801;-70
2022/03/02 10:10:36;;;;;;;8.50;5.67;;;6.90;90.90;;;;;;4994779;28;20479;-71
2022/03/02 10:13:04;;;;;;;10.27;6.07;;;6.10;91.40;;;;;;4994711;28;20396;-70
2022/03/02 10:15:31;;;;;;;12.03;6.20;;;6.40;92.20;;;;;;4994619;28;20415;-71
2022/03/02 10:17:59;;;;;;;7.87;5.83;;;6.70;92.50;;;;;;4994665;28;20408;-71
2022/03/02 10:20:27;;;;;;;9.17;5.40;;;6.60;91.30;;;;;;4994482;28;20451;-71
2022/03/02 10:23:14;;;;;;;9.60;5.90;;;6.40;91.40;;;;;;4994522;28;20412;-71
2022/03/02 10:26:11;;;;;;;10.13;5.57;;;6.80;91.60;;;;;;4994943;28;20439;-73
2022/03/02 10:28:48;;;;;;;9.37;6.47;;;7.00;91.50;;;;;;4984087;28;20432;-70
2022/03/02 10:31:39;;;;;;;6.50;4.90;;;7.30;90.80;;;;;;4986631;28;20891;-70
2022/03/02 10:34:27;;;;;;;11.80;5.87;;;7.20;89.50;;;;;;4974861;28;20417;-71
2022/03/02 10:37:29;;;;;;;8.20;5.37;;;7.10;89.10;;;;;;4984106;28;20440;-75
2022/03/02 10:40:05;;;;;;;6.43;4.73;;;7.50;88.90;;;;;;4994719;28;20431;-72
2022/03/02 10:42:41;;;;;;;9.53;5.60;;;7.70;86.70;;;;;;4975679;28;20433;-70
2022/03/02 10:45:25;;;;;;;5.80;4.47;;;7.80;86.60;;;;;;4975526;28;20401;-71
2022/03/02 10:47:58;;;;;;;8.80;4.80;;;7.50;84.70;;;;;;4984784;28;20412;-72
2022/03/02 10:50:27;;;;;;;9.17;5.33;;;7.60;84.00;;;;;;4989339;28;20468;-71
2022/03/02 10:52:55;;;;;;;8.30;4.90;;;7.60;84.90;;;;;;4994599;28;20444;-71
2022/03/02 10:55:21;;;;;;;14.10;6.03;;;7.60;83.60;;;;;;4976991;28;20446;-72
2022/03/02 10:57:49;;;;;;;8.03;6.10;;;7.40;84.30;;;;;;4995417;28;20409;-72
2022/03/02 11:00:17;;;;;;;10.10;5.40;;;7.10;83.30;;;;;;4994892;28;20470;-72
2022/03/02 11:02:46;;;;;;;10.53;5.83;;;7.10;85.60;;;;;;4995218;28;20414;-72
2022/03/02 11:05:14;;;;;;;7.77;4.70;;;7.10;85.00;;;;;;4995879;28;20404;-72
2022/03/02 11:07:41;;;;;;;8.00;5.10;;;7.00;85.20;;;;;;4994484;28;20455;-72
2022/03/02 11:10:11;;;;;;;10.13;5.23;;;6.90;85.40;;;;;;4993588;28;20429;-73
2022/03/02 11:12:41;;;;;;;12.30;6.73;;;6.90;85.90;;;;;;4993841;28;20750;-71
2022/03/02 11:15:08;;;;;;;9.63;6.20;;;6.80;85.20;;;;;;4997049;28;20427;-73
2022/03/02 11:17:34;;;;;;;10.00;6.27;;;6.80;86.20;;;;;;4977865;28;20416;-71
2022/03/02 11:20:08;;;;;;;9.00;5.67;;;6.90;87.10;;;;;;4976671;28;20718;-72
2022/03/02 11:22:34;;;;;;;8.67;5.93;;;6.80;87.30;;;;;;4993656;28;20901;-71
2022/03/02 11:24:59;;;;;;;15.00;6.77;;;6.90;86.80;;;;;;4991661;28;20416;-72
2022/03/02 11:27:35;;;;;;;10.60;5.77;;;6.90;86.30;;;;;;4993505;28;20684;-71
2022/03/02 11:30:15;;;;;;;12.13;6.57;;;6.80;85.50;;;;;;4993562;28;20228;-71
2022/03/02 11:32:43;;;;;;;9.03;5.37;;;6.80;85.50;;;;;;4993887;28;20415;-71
2022/03/02 11:35:10;;;;;;;9.60;6.97;;;6.80;85.40;;;;;;4994067;28;20510;-71
2022/03/02 11:37:36;;;;;;;9.90;5.57;;;6.80;85.70;;;;;;4993526;28;20408;-70
2022/03/02 11:40:06;;;;;;;13.43;6.03;;;6.70;86.20;;;;;;4993173;28;20431;-72
2022/03/02 11:42:34;;;;;;;6.97;4.90;;;6.80;87.30;;;;;;4993127;28;20397;-72
2022/03/02 11:45:02;;;;;;;11.47;6.63;;;7.00;87.40;;;;;;4993120;28;20455;-73
2022/03/02 11:47:39;;;;;;;11.07;6.17;;;7.10;86.00;;;;;;4993424;28;20787;-71
2022/03/02 11:50:07;;;;;;;11.27;6.60;;;7.00;84.80;;;;;;4993061;28;20424;-75
2022/03/02 11:52:37;;;;;;;12.20;7.30;;;6.90;84.00;;;;;;4992946;28;20451;-73
2022/03/02 11:55:16;;;;;;;10.90;5.97;;;6.90;83.00;;;;;;4992793;28;20435;-73
2022/03/02 11:57:48;;;;;;;7.47;5.77;;;7.10;82.20;;;;;;4992887;28;20432;-72
2022/03/02 12:00:23;;;;;;;10.33;5.87;;;7.10;82.10;;;;;;4992558;28;20420;-73
2022/03/02 12:02:56;;;;;;;11.43;7.60;;;7.00;82.60;;;;;;4992768;28;20870;-72
2022/03/02 12:05:27;;;;;;;12.87;6.40;;;6.80;82.70;;;;;;4992649;28;20440;-73
2022/03/02 12:08:07;;;;;;;10.27;7.40;;;6.80;82.40;;;;;;4992552;28;20412;-72
2022/03/02 12:10:38;;;;;;;8.60;6.43;;;7.00;81.00;;;;;;4992328;28;20455;-72
2022/03/02 12:13:05;;;;;;;12.23;6.70;;;7.00;80.60;;;;;;4992348;28;20415;-73
2022/03/02 12:15:45;;;;;;;11.87;6.23;;;7.10;78.90;;;;;;4992645;28;20444;-73
2022/03/02 12:18:12;;;;;;;5.57;5.00;;;7.00;78.50;;;;;;4992655;28;20396;-72
2022/03/02 12:20:46;;;;;;;6.80;4.10;;;7.20;76.60;;;;;;4992359;28;20456;-72
2022/03/02 12:23:12;;;;;;;13.43;5.73;;;7.30;74.40;;;;;;4992546;28;20424;-72
2022/03/02 12:25:47;;;;;;;7.60;5.57;;;7.40;75.30;;;;;;4992480;28;20438;-72
2022/03/02 12:28:15;;;;;;;7.50;5.57;;;7.30;76.00;;;;;;4992815;28;20407;-72
2022/03/02 12:30:40;;;;;;;9.63;4.80;;;7.40;77.30;;;;;;4992542;28;21021;-72
2022/03/02 12:33:06;;;;;;;7.77;5.43;;;7.80;77.20;;;;;;4992449;28;20499;-72
2022/03/02 12:35:32;;;;;;;8.40;6.20;;;7.90;76.60;;;;;;4992306;28;20192;-72
2022/03/02 12:37:59;;;;;;;10.27;5.50;;;7.90;74.80;;;;;;4992303;28;20173;-73
2022/03/02 12:40:29;;;;;;;8.50;6.60;;;7.70;74.40;;;;;;4992172;28;20185;-72
2022/03/02 12:42:55;;;;;;;6.07;5.47;;;7.60;74.30;;;;;;4992155;28;20419;-72
2022/03/02 12:45:21;;;;;;;7.63;4.70;;;7.60;75.70;;;;;;4992200;28;20416;-72
2022/03/02 12:47:47;;;;;;;10.93;5.50;;;7.90;75.10;;;;;;4992233;28;20451;-73
2022/03/02 12:50:17;;;;;;;8.77;6.07;;;8.10;75.00;;;;;;4991925;28;20467;-72
2022/03/02 12:52:43;;;;;;;6.83;5.03;;;8.20;74.70;;;;;;4991955;28;20401;-72
2022/03/02 12:55:11;;;;;;;10.93;5.50;;;8.20;73.80;;;;;;4989539;28;20825;-73